Time;durP1;ratioP1;P1;durP2;ratioP2;P2;SDS_P1;SDS_P2;PMS_P1;PMS_P2;Temp;Humidity;BMP_temperature;BMP_pressure;BME280_temperature;BME280_humidity;BME280_pressure;Samples;Min_cycle;Max_cycle;Signal;HPM_P1;HPM_P2
2022/01/02 00:00:22;;;;;;;3.65;2.65;;;13.30;85.40;;;;;;5107772;28;20085;-75
2022/01/02 00:03:04;;;;;;;4.38;2.53;;;13.30;85.40;;;;;;5094438;28;20486;-75
2022/01/02 00:05:32;;;;;;;5.10;2.60;;;13.30;85.20;;;;;;5112704;28;20030;-76
2022/01/02 00:08:10;;;;;;;4.82;3.30;;;13.30;85.20;;;;;;5094249;28;20032;-75
2022/01/02 00:10:51;;;;;;;5.32;2.80;;;13.30;85.20;;;;;;5094459;28;20558;-75
2022/01/02 00:13:46;;;;;;;3.78;2.40;;;13.30;85.10;;;;;;5094320;28;20016;-75
2022/01/02 00:16:16;;;;;;;4.07;2.38;;;13.30;85.10;;;;;;5095564;28;20031;-77
2022/01/02 00:18:50;;;;;;;4.38;2.17;;;13.30;85.10;;;;;;5098220;28;20024;-75
2022/01/02 00:24:57;;;;;;;3.80;2.58;;;13.20;85.00;;;;;;5116681;28;20049;-75
2022/01/02 00:27:24;;;;;;;2.90;2.22;;;13.20;85.00;;;;;;5098002;28;20455;-76
2022/01/02 00:29:53;;;;;;;4.18;2.35;;;13.20;85.00;;;;;;5097881;28;20058;-75
2022/01/02 00:32:21;;;;;;;3.47;2.33;;;13.20;85.00;;;;;;5116293;28;20050;-75
2022/01/02 00:34:51;;;;;;;5.55;2.42;;;13.20;85.00;;;;;;5116181;28;20421;-75
2022/01/02 00:37:18;;;;;;;4.05;2.13;;;13.20;84.90;;;;;;5097731;28;20540;-75
2022/01/02 00:39:43;;;;;;;4.75;2.20;;;13.20;84.90;;;;;;5097753;28;20020;-75
2022/01/02 00:45:40;;;;;;;4.72;2.22;;;13.20;84.70;;;;;;5116372;28;20069;-76
2022/01/02 00:48:14;;;;;;;3.97;2.30;;;13.20;84.80;;;;;;5097424;28;20486;-75
2022/01/02 00:50:52;;;;;;;4.30;2.30;;;13.20;84.70;;;;;;5115816;28;20102;-75
2022/01/02 00:53:23;;;;;;;4.88;2.55;;;13.20;84.60;;;;;;5097822;28;20035;-75
2022/01/02 00:59:34;;;;;;;4.05;2.38;;;13.20;84.60;;;;;;5094932;28;20023;-75
2022/01/02 01:05:29;;;;;;;5.15;2.50;;;13.20;84.60;;;;;;5115921;28;20060;-75
2022/01/02 01:08:08;;;;;;;4.78;2.50;;;13.20;84.80;;;;;;5097530;28;20027;-75
2022/01/02 01:10:38;;;;;;;3.58;2.42;;;13.10;84.80;;;;;;5097387;28;20026;-75
2022/01/02 01:13:08;;;;;;;5.30;2.33;;;13.10;84.80;;;;;;5097431;28;20062;-75
2022/01/02 01:15:35;;;;;;;4.22;2.53;;;13.10;85.00;;;;;;5097178;28;20552;-75
2022/01/02 01:18:03;;;;;;;6.20;2.50;;;13.10;85.00;;;;;;5097377;28;20024;-75
2022/01/02 01:20:36;;;;;;;3.55;2.40;;;13.10;85.10;;;;;;5115629;28;20020;-75
2022/01/02 01:23:02;;;;;;;;;;;13.10;85.20;;;;;;5116023;28;20023;-75
2022/01/02 01:25:36;;;;;;;4.00;2.33;;;13.10;85.20;;;;;;5115331;28;19907;-75
2022/01/02 01:28:04;;;;;;;7.63;2.53;;;13.10;85.90;;;;;;5115098;28;20328;-75
2022/01/02 01:30:30;;;;;;;3.80;2.28;;;13.00;85.40;;;;;;5097194;28;20487;-75
2022/01/02 01:32:56;;;;;;;3.50;2.40;;;13.00;85.50;;;;;;5097128;28;20063;-75
2022/01/02 01:35:22;;;;;;;7.40;2.60;;;13.00;85.70;;;;;;5115397;28;20061;-75
2022/01/02 01:37:49;;;;;;;7.38;2.40;;;12.90;85.80;;;;;;5115398;28;20036;-75
2022/01/02 01:43:40;;;;;;;4.20;2.22;;;12.90;86.10;;;;;;5115377;28;20035;-73
2022/01/02 01:46:06;;;;;;;6.10;2.50;;;12.90;86.20;;;;;;5096991;28;20514;-75
2022/01/02 01:48:39;;;;;;;3.90;2.40;;;12.90;86.30;;;;;;5096785;28;20027;-76
2022/01/02 01:51:05;;;;;;;4.03;2.27;;;12.80;86.40;;;;;;5096622;28;20032;-73
2022/01/02 01:53:33;;;;;;;6.78;2.60;;;12.80;86.50;;;;;;5096730;28;20390;-75
2022/01/02 01:55:59;;;;;;;4.55;2.45;;;12.80;86.60;;;;;;5097062;28;20536;-75
2022/01/02 01:58:24;;;;;;;4.68;2.35;;;12.80;86.80;;;;;;5096619;28;20028;-74
2022/01/02 02:00:50;;;;;;;6.75;3.03;;;12.80;86.90;;;;;;5096615;28;20078;-73
2022/01/02 02:03:16;;;;;;;5.13;2.40;;;12.80;87.00;;;;;;5096640;28;20032;-73
2022/01/02 02:05:45;;;;;;;4.32;2.40;;;12.80;87.00;;;;;;5096524;28;20028;-73
2022/01/02 02:08:11;;;;;;;6.20;2.70;;;12.80;87.10;;;;;;5096312;28;20030;-73
2022/01/02 02:10:41;;;;;;;3.95;2.20;;;12.80;87.20;;;;;;5096384;28;20019;-73
2022/01/02 02:13:07;;;;;;;6.45;2.63;;;12.80;87.30;;;;;;5114533;28;20031;-74
2022/01/02 02:15:36;;;;;;;4.93;2.45;;;12.80;87.30;;;;;;5096300;28;20048;-74
2022/01/02 02:21:32;;;;;;;5.10;2.40;;;12.80;87.40;;;;;;5114858;28;20034;-74
2022/01/02 02:23:59;;;;;;;5.43;2.50;;;12.80;87.40;;;;;;5096194;28;20126;-74
2022/01/02 02:29:52;;;;;;;6.10;2.72;;;12.80;87.50;;;;;;5114402;28;20039;-73
2022/01/02 02:32:18;;;;;;;4.95;2.33;;;12.80;87.50;;;;;;5095944;28;20024;-76
2022/01/02 02:34:47;;;;;;;4.50;2.58;;;12.80;87.50;;;;;;5096067;28;20161;-75
2022/01/02 02:37:12;;;;;;;6.13;2.50;;;12.80;87.60;;;;;;5095918;28;20024;-76
2022/01/02 02:39:41;;;;;;;6.40;2.50;;;12.80;87.70;;;;;;5095853;28;20031;-75
2022/01/02 02:42:22;;;;;;;4.97;2.30;;;12.80;87.70;;;;;;5113976;28;20046;-73
2022/01/02 02:44:59;;;;;;;4.18;2.30;;;12.80;87.70;;;;;;5095722;28;20151;-74
2022/01/02 02:50:09;;;;;;;6.88;2.38;;;12.80;87.80;;;;;;5113823;28;20058;-73
2022/01/02 02:56:02;;;;;;;4.22;2.28;;;12.90;87.80;;;;;;5114106;28;20030;-74
2022/01/02 03:01:00;;;;;;;4.57;2.20;;;12.90;87.80;;;;;;5113452;28;20115;-74
2022/01/02 03:03:30;;;;;;;5.65;2.53;;;12.90;87.80;;;;;;5095624;28;20024;-74
2022/01/02 03:05:56;;;;;;;7.18;2.70;;;12.90;87.80;;;;;;5094999;28;20126;-74
2022/01/02 03:08:22;;;;;;;7.93;3.47;;;12.90;87.80;;;;;;5095402;28;20051;-73
2022/01/02 03:10:51;;;;;;;7.15;2.35;;;13.00;87.90;;;;;;5113815;28;20020;-76
2022/01/02 03:13:16;;;;;;;7.55;2.53;;;12.90;87.80;;;;;;5113421;28;20540;-74
2022/01/02 03:15:42;;;;;;;6.95;2.20;;;13.00;87.90;;;;;;5095295;28;20068;-72
2022/01/02 03:18:07;;;;;;;6.75;2.63;;;13.00;87.90;;;;;;5095186;28;20072;-75
2022/01/02 03:20:33;;;;;;;5.47;2.40;;;13.00;87.90;;;;;;5095215;28;20028;-73
2022/01/02 03:22:59;;;;;;;6.53;2.35;;;13.00;87.90;;;;;;5113340;28;20051;-73
2022/01/02 03:25:24;;;;;;;6.03;2.28;;;13.00;87.90;;;;;;5113435;28;20034;-74
2022/01/02 03:27:50;;;;;;;4.18;2.38;;;13.10;87.90;;;;;;5095073;28;20363;-76
2022/01/02 03:30:15;;;;;;;5.55;2.20;;;13.10;87.90;;;;;;5095015;28;20506;-76
2022/01/02 03:32:41;;;;;;;5.97;2.42;;;13.10;87.90;;;;;;5094996;28;20030;-74
2022/01/02 03:35:07;;;;;;;4.93;2.40;;;13.10;87.90;;;;;;5094835;28;20080;-73
2022/01/02 03:37:34;;;;;;;6.65;2.40;;;13.10;87.90;;;;;;5094795;28;20031;-76
2022/01/02 03:40:01;;;;;;;4.45;2.10;;;13.10;87.90;;;;;;5094876;28;20027;-76
2022/01/02 03:42:26;;;;;;;4.90;2.25;;;13.10;87.90;;;;;;5094792;28;20031;-73
2022/01/02 03:44:52;;;;;;;6.22;2.03;;;13.10;87.90;;;;;;5113134;28;20505;-75
2022/01/02 03:47:18;;;;;;;5.00;2.00;;;13.20;87.90;;;;;;5113122;28;20024;-74
2022/01/02 03:49:44;;;;;;;9.30;2.67;;;13.20;87.90;;;;;;5096239;28;20020;-74
2022/01/02 03:52:09;;;;;;;5.78;2.00;;;13.20;87.80;;;;;;5099255;28;20119;-74
2022/01/02 03:54:35;;;;;;;7.55;2.30;;;13.20;87.70;;;;;;5098996;28;20058;-73
2022/01/02 03:57:01;;;;;;;8.27;2.47;;;13.20;87.70;;;;;;5098841;28;20499;-74
2022/01/02 03:59:27;;;;;;;2.90;1.80;;;13.20;87.70;;;;;;5098664;28;20044;-74
2022/01/02 04:01:53;;;;;;;6.28;1.88;;;13.20;87.70;;;;;;5098825;28;20028;-73
2022/01/02 04:04:18;;;;;;;7.70;2.33;;;13.20;87.80;;;;;;5098679;28;20116;-73
2022/01/02 04:06:44;;;;;;;7.30;2.20;;;13.20;87.70;;;;;;5098700;28;20032;-75
2022/01/02 04:09:09;;;;;;;6.85;2.08;;;13.20;87.80;;;;;;5098483;28;20471;-74
2022/01/02 04:11:35;;;;;;;4.72;2.30;;;13.30;87.80;;;;;;5116903;28;20102;-74
2022/01/02 04:14:01;;;;;;;3.40;1.88;;;13.20;87.80;;;;;;5098508;28;20027;-74
2022/01/02 04:16:26;;;;;;;4.13;1.92;;;13.30;87.80;;;;;;5098536;28;20118;-74
2022/01/02 04:18:52;;;;;;;4.63;2.13;;;13.30;87.80;;;;;;5116739;28;20042;-74
2022/01/02 04:21:18;;;;;;;4.35;1.98;;;13.30;87.80;;;;;;5098403;28;20027;-75
2022/01/02 04:23:43;;;;;;;4.97;2.05;;;13.30;87.70;;;;;;5098427;28;20084;-75
2022/01/02 04:26:09;;;;;;;5.03;2.03;;;13.30;87.60;;;;;;5098275;28;20394;-74
2022/01/02 04:28:34;;;;;;;5.07;1.70;;;13.40;87.60;;;;;;5098215;28;20067;-74
2022/01/02 04:31:00;;;;;;;3.78;1.73;;;13.30;87.50;;;;;;5116368;28;20035;-75
2022/01/02 04:33:26;;;;;;;5.05;1.83;;;13.30;87.50;;;;;;5098255;28;20023;-75
2022/01/02 04:35:52;;;;;;;5.07;1.70;;;13.40;87.60;;;;;;5098054;28;20035;-75
2022/01/02 04:38:18;;;;;;;6.63;2.33;;;13.40;87.60;;;;;;5098070;28;20027;-74
2022/01/02 04:40:43;;;;;;;6.30;1.88;;;13.30;87.50;;;;;;5097806;28;20019;-74
2022/01/02 04:43:09;;;;;;;6.93;2.05;;;13.40;87.50;;;;;;5097943;28;20161;-75
2022/01/02 04:45:35;;;;;;;4.85;1.95;;;13.40;87.60;;;;;;5098206;28;20076;-75
2022/01/02 04:48:01;;;;;;;4.90;2.13;;;13.40;87.60;;;;;;5098017;28;20015;-74
2022/01/02 04:50:26;;;;;;;6.28;2.40;;;13.40;87.70;;;;;;5097942;28;20031;-74
2022/01/02 04:52:52;;;;;;;4.78;2.20;;;13.30;87.80;;;;;;5097923;28;20051;-74
2022/01/02 04:55:18;;;;;;;6.45;2.17;;;13.30;87.90;;;;;;5097884;28;20506;-75
2022/01/02 04:57:44;;;;;;;8.02;2.30;;;13.20;87.90;;;;;;5116339;28;20030;-75
2022/01/02 05:00:10;;;;;;;4.03;2.08;;;13.20;88.00;;;;;;5097450;28;20510;-74
2022/01/02 05:02:36;;;;;;;5.35;2.20;;;13.20;88.00;;;;;;5096738;28;20070;-75
2022/01/02 05:05:02;;;;;;;4.75;2.20;;;13.20;88.10;;;;;;5116036;28;20032;-74
2022/01/02 05:07:27;;;;;;;4.50;2.35;;;13.20;88.10;;;;;;5097758;28;20080;-74
2022/01/02 05:09:53;;;;;;;5.80;2.38;;;13.10;88.20;;;;;;5097728;28;20027;-74
2022/01/02 05:12:18;;;;;;;3.78;2.15;;;13.10;88.20;;;;;;5097692;28;20020;-74
2022/01/02 05:14:44;;;;;;;5.25;2.10;;;13.10;88.40;;;;;;5094778;28;20027;-74
2022/01/02 05:17:10;;;;;;;6.45;2.35;;;13.10;88.40;;;;;;5097721;28;20163;-74
2022/01/02 05:19:35;;;;;;;8.23;2.33;;;13.00;88.50;;;;;;5097628;28;20086;-74
2022/01/02 05:22:01;;;;;;;5.75;2.50;;;13.00;88.60;;;;;;5097562;28;20500;-75
2022/01/02 05:24:27;;;;;;;5.80;2.45;;;13.00;88.70;;;;;;5115831;28;20076;-74
2022/01/02 05:26:53;;;;;;;4.40;2.05;;;13.00;88.80;;;;;;5097573;28;20032;-74
2022/01/02 05:29:19;;;;;;;6.10;2.42;;;13.00;88.90;;;;;;5097197;28;20024;-74
2022/01/02 05:31:45;;;;;;;4.07;2.10;;;12.90;89.00;;;;;;5097616;28;20566;-75
2022/01/02 05:34:11;;;;;;;5.55;2.08;;;12.90;89.00;;;;;;5115568;28;20035;-74
2022/01/02 05:36:36;;;;;;;5.47;2.15;;;12.90;89.00;;;;;;5097207;28;20066;-74
2022/01/02 05:39:02;;;;;;;5.97;2.40;;;12.90;89.10;;;;;;5115389;28;20035;-74
2022/01/02 05:41:30;;;;;;;5.55;2.20;;;12.90;89.10;;;;;;5097267;28;20119;-74
2022/01/02 05:43:56;;;;;;;6.10;2.15;;;12.90;89.20;;;;;;5097356;28;20222;-74
2022/01/02 05:46:22;;;;;;;3.88;2.00;;;12.90;89.20;;;;;;5096921;28;20111;-74
2022/01/02 05:48:47;;;;;;;6.78;2.30;;;12.90;89.30;;;;;;5096828;28;20023;-74
2022/01/02 05:51:13;;;;;;;4.75;2.10;;;12.90;89.30;;;;;;5115121;28;20028;-75
2022/01/02 05:53:39;;;;;;;7.38;2.38;;;12.90;89.30;;;;;;5096807;28;20052;-74
2022/01/02 05:56:05;;;;;;;4.53;2.20;;;12.90;89.30;;;;;;5115061;28;20023;-75
2022/01/02 05:58:31;;;;;;;5.80;2.20;;;12.90;89.30;;;;;;5096916;28;20159;-74
2022/01/02 06:00:56;;;;;;;7.93;2.20;;;12.90;89.30;;;;;;5096378;28;20055;-74
2022/01/02 06:03:22;;;;;;;5.35;2.03;;;12.90;89.30;;;;;;5096624;28;20027;-74
2022/01/02 06:05:47;;;;;;;6.03;2.13;;;12.90;89.30;;;;;;5096630;28;20064;-74
2022/01/02 06:08:13;;;;;;;3.85;2.03;;;12.90;89.40;;;;;;5096344;28;20035;-76
2022/01/02 06:10:39;;;;;;;3.17;1.90;;;12.80;89.30;;;;;;5096476;28;20019;-74
2022/01/02 06:13:05;;;;;;;4.35;1.90;;;12.80;89.40;;;;;;5096067;28;20104;-75
2022/01/02 06:15:30;;;;;;;5.80;2.25;;;12.80;89.40;;;;;;5114577;28;20035;-74
2022/01/02 06:17:56;;;;;;;6.95;2.28;;;12.80;89.40;;;;;;5096216;28;20077;-75
2022/01/02 06:20:21;;;;;;;4.00;1.90;;;12.80;89.40;;;;;;5114468;28;20107;-75
2022/01/02 06:22:47;;;;;;;4.82;1.98;;;12.80;89.40;;;;;;5096359;28;20027;-74
2022/01/02 06:25:13;;;;;;;3.10;2.20;;;12.80;89.50;;;;;;5096097;28;20081;-74
2022/01/02 06:27:39;;;;;;;5.05;1.80;;;12.70;89.50;;;;;;5114364;28;20031;-74
2022/01/02 06:30:05;;;;;;;4.13;2.22;;;12.70;89.50;;;;;;5095838;28;20441;-74
2022/01/02 06:32:31;;;;;;;4.22;1.92;;;12.70;89.40;;;;;;5114153;28;20471;-74
2022/01/02 06:34:56;;;;;;;4.10;1.90;;;12.70;89.40;;;;;;5095844;28;20122;-75
2022/01/02 06:37:22;;;;;;;5.13;2.00;;;12.70;89.40;;;;;;5095849;28;20556;-74
2022/01/02 06:39:47;;;;;;;4.82;1.95;;;12.70;89.40;;;;;;5095778;28;20063;-74
2022/01/02 06:42:13;;;;;;;4.53;1.92;;;12.70;89.40;;;;;;5095811;28;20039;-74
2022/01/02 06:44:39;;;;;;;5.72;1.90;;;12.70;89.40;;;;;;5113995;28;20108;-75
2022/01/02 06:47:04;;;;;;;4.78;1.88;;;12.70;89.40;;;;;;5095786;28;20032;-75
2022/01/02 06:49:30;;;;;;;3.95;2.17;;;12.70;89.40;;;;;;5095569;28;20034;-74
2022/01/02 06:51:56;;;;;;;4.13;1.98;;;12.70;89.40;;;;;;5095611;28;20034;-75
2022/01/02 06:54:21;;;;;;;4.47;1.92;;;12.60;89.40;;;;;;5095621;28;20483;-74
2022/01/02 06:56:47;;;;;;;4.45;1.98;;;12.60;89.40;;;;;;5095629;28;20061;-75
2022/01/02 06:59:12;;;;;;;5.90;2.22;;;12.60;89.50;;;;;;5095344;28;20039;-74
2022/01/02 07:01:38;;;;;;;3.60;1.88;;;12.60;89.50;;;;;;5113881;28;20043;-74
2022/01/02 07:04:03;;;;;;;3.90;1.90;;;12.60;89.50;;;;;;5095548;28;20020;-75
2022/01/02 07:06:29;;;;;;;6.22;1.92;;;12.60;89.40;;;;;;5113797;28;20046;-75
2022/01/02 07:08:55;;;;;;;4.88;2.10;;;12.60;89.50;;;;;;5113590;28;20039;-75
2022/01/02 07:11:20;;;;;;;3.63;1.70;;;12.60;89.40;;;;;;5095388;28;20378;-74
2022/01/02 07:13:46;;;;;;;4.78;2.20;;;12.60;89.30;;;;;;5113524;28;20027;-74
2022/01/02 07:16:11;;;;;;;6.63;2.00;;;12.60;89.30;;;;;;5113590;28;20084;-75
2022/01/02 07:18:37;;;;;;;3.42;1.92;;;12.60;89.20;;;;;;5095333;28;20406;-74
2022/01/02 07:21:02;;;;;;;7.78;2.47;;;12.60;89.20;;;;;;5113457;28;20023;-74
2022/01/02 07:23:28;;;;;;;6.25;1.92;;;12.60;89.20;;;;;;5113292;28;20055;-75
2022/01/02 07:25:54;;;;;;;3.20;1.90;;;12.70;89.10;;;;;;5113138;28;20035;-75
2022/01/02 07:28:21;;;;;;;5.43;2.00;;;12.60;89.00;;;;;;5113318;28;20487;-74
2022/01/02 07:30:46;;;;;;;4.55;2.08;;;12.70;89.00;;;;;;5095212;28;20394;-75
2022/01/02 07:33:12;;;;;;;3.55;1.70;;;12.70;89.00;;;;;;5095177;28;20118;-74
2022/01/02 07:35:37;;;;;;;2.75;1.88;;;12.60;88.90;;;;;;5095285;28;20032;-74
2022/01/02 07:38:03;;;;;;;2.40;1.70;;;12.70;88.90;;;;;;5095285;28;20038;-74
2022/01/02 07:43:51;;;;;;;4.03;1.70;;;12.70;88.80;;;;;;5113517;28;20119;-76
2022/01/02 07:46:16;;;;;;;2.60;1.70;;;12.60;88.80;;;;;;5095106;28;20107;-75
2022/01/02 07:48:42;;;;;;;3.83;2.00;;;12.70;88.70;;;;;;5092110;28;20039;-75
2022/01/02 07:51:08;;;;;;;3.45;1.80;;;12.70;88.70;;;;;;5095037;28;20032;-75
2022/01/02 07:53:33;;;;;;;5.10;2.10;;;12.60;88.60;;;;;;5095007;28;20016;-75
2022/01/02 07:55:59;;;;;;;3.83;2.15;;;12.70;88.70;;;;;;5113176;28;20026;-74
2022/01/02 07:58:24;;;;;;;5.55;1.90;;;12.60;88.60;;;;;;5113340;28;20024;-75
2022/01/02 08:00:50;;;;;;;4.95;2.10;;;12.60;88.50;;;;;;5112898;28;20126;-75
2022/01/02 08:03:16;;;;;;;4.97;2.30;;;12.60;88.60;;;;;;5094819;28;20114;-75
2022/01/02 08:05:42;;;;;;;5.10;2.10;;;12.60;88.60;;;;;;5094896;28;20027;-75
2022/01/02 08:08:08;;;;;;;5.05;2.30;;;12.60;88.60;;;;;;5094755;28;20544;-75
2022/01/02 08:10:34;;;;;;;5.35;2.20;;;12.60;88.50;;;;;;5091827;28;20059;-75
2022/01/02 08:13:00;;;;;;;5.97;2.25;;;12.60;88.40;;;;;;5094595;28;20372;-75
2022/01/02 08:15:27;;;;;;;5.28;2.25;;;12.50;88.40;;;;;;5092172;28;20499;-75
2022/01/02 08:17:52;;;;;;;3.92;2.10;;;12.50;88.40;;;;;;5094856;28;20024;-75
2022/01/02 08:20:18;;;;;;;3.42;2.08;;;12.60;88.50;;;;;;5094888;28;20036;-75
2022/01/02 08:22:44;;;;;;;5.40;1.90;;;12.50;88.40;;;;;;5109734;28;20111;-75
2022/01/02 08:25:09;;;;;;;4.78;2.08;;;12.60;88.60;;;;;;5112814;28;20088;-75
2022/01/02 08:27:36;;;;;;;4.82;2.55;;;12.50;88.50;;;;;;5113139;28;20035;-74
2022/01/02 08:30:02;;;;;;;4.85;2.70;;;12.60;88.60;;;;;;5094421;28;20092;-75
2022/01/02 08:32:28;;;;;;;5.15;2.70;;;12.60;88.60;;;;;;5091642;28;20036;-75
2022/01/02 08:34:53;;;;;;;6.45;2.00;;;12.60;88.60;;;;;;5091601;28;20368;-75
2022/01/02 08:37:19;;;;;;;4.35;2.70;;;12.60;88.50;;;;;;5098061;28;20114;-75
2022/01/02 08:39:45;;;;;;;5.05;2.30;;;12.60;88.50;;;;;;5098100;28;20475;-75
2022/01/02 08:42:12;;;;;;;5.00;2.00;;;12.60;88.50;;;;;;5116214;28;20031;-75
2022/01/02 08:44:41;;;;;;;4.82;2.15;;;12.60;88.40;;;;;;5116508;28;20032;-75
2022/01/02 08:47:08;;;;;;;3.70;1.90;;;12.60;88.40;;;;;;5116351;28;20034;-76
2022/01/02 08:52:56;;;;;;;5.22;2.35;;;12.60;88.20;;;;;;5116116;28;20076;-76
2022/01/02 08:55:24;;;;;;;4.45;1.80;;;12.60;88.20;;;;;;5098028;28;20020;-75
2022/01/02 08:58:28;;;;;;;4.40;1.73;;;12.60;88.20;;;;;;5115985;28;20069;-76
2022/01/02 09:00:54;;;;;;;2.60;1.90;;;12.60;88.20;;;;;;5093927;28;20101;-76
2022/01/02 09:03:21;;;;;;;3.20;1.88;;;12.50;88.20;;;;;;5094139;28;20024;-75
2022/01/02 09:05:46;;;;;;;5.13;1.88;;;12.60;88.20;;;;;;5095368;28;20040;-75
2022/01/02 09:08:13;;;;;;;2.95;1.83;;;12.50;88.20;;;;;;5094030;28;20020;-74
2022/01/02 09:10:38;;;;;;;2.83;1.70;;;12.50;88.20;;;;;;5093825;28;20059;-74
2022/01/02 09:13:04;;;;;;;4.60;2.35;;;12.50;88.30;;;;;;5094005;28;20078;-74
2022/01/02 09:15:30;;;;;;;4.25;1.80;;;12.50;88.30;;;;;;5093803;28;20510;-75
2022/01/02 09:17:56;;;;;;;2.78;1.70;;;12.50;88.20;;;;;;5093788;28;20028;-74
2022/01/02 09:20:21;;;;;;;3.28;2.28;;;12.50;88.70;;;;;;5093810;28;20062;-75
2022/01/02 09:22:47;;;;;;;3.35;2.10;;;12.50;88.00;;;;;;5094964;28;20369;-75
2022/01/02 09:28:35;;;;;;;2.97;1.75;;;12.50;87.70;;;;;;5095031;28;20070;-75
2022/01/02 09:31:01;;;;;;;5.32;2.03;;;12.50;87.60;;;;;;5093706;28;20047;-75
2022/01/02 09:33:58;;;;;;;3.50;2.30;;;12.60;87.50;;;;;;5093596;28;20020;-75
2022/01/02 09:36:23;;;;;;;3.17;1.90;;;12.60;87.20;;;;;;5094731;28;20032;-74
2022/01/02 09:38:50;;;;;;;3.83;1.90;;;12.50;87.10;;;;;;5093339;28;20209;-75
2022/01/02 09:41:19;;;;;;;5.60;2.25;;;12.60;87.10;;;;;;5093200;28;20398;-74
2022/01/02 09:43:47;;;;;;;2.92;2.10;;;12.60;86.90;;;;;;5093321;28;20024;-74
2022/01/02 09:46:23;;;;;;;4.63;2.17;;;12.60;86.80;;;;;;5093177;28;20031;-74
2022/01/02 09:48:50;;;;;;;3.88;2.05;;;12.60;86.80;;;;;;5092852;28;20091;-74
2022/01/02 09:51:24;;;;;;;3.67;2.55;;;12.50;86.80;;;;;;5093509;28;20111;-74
2022/01/02 09:53:52;;;;;;;2.65;2.10;;;12.50;87.20;;;;;;5094477;28;20066;-74
2022/01/02 09:56:18;;;;;;;4.13;2.30;;;12.50;86.70;;;;;;5094505;28;20024;-74
2022/01/02 09:58:46;;;;;;;4.57;2.40;;;12.60;86.70;;;;;;5094119;28;20040;-74
2022/01/02 10:01:24;;;;;;;3.90;2.65;;;12.60;86.60;;;;;;5113318;28;20035;-74
2022/01/02 10:03:53;;;;;;;3.72;2.20;;;12.60;86.50;;;;;;5114474;28;20031;-75
2022/01/02 10:06:21;;;;;;;3.88;2.55;;;12.60;86.50;;;;;;5096703;28;20134;-74
2022/01/02 10:08:47;;;;;;;3.80;2.60;;;12.60;86.50;;;;;;5114324;28;20028;-74
2022/01/02 10:11:21;;;;;;;4.32;2.70;;;12.60;86.40;;;;;;5114519;28;20467;-74
2022/01/02 10:13:56;;;;;;;5.82;2.60;;;12.50;86.30;;;;;;5095968;28;20502;-75
2022/01/02 10:16:21;;;;;;;4.28;2.42;;;12.60;86.50;;;;;;5096071;28;20024;-74
2022/01/02 10:18:48;;;;;;;3.38;2.50;;;12.60;86.40;;;;;;5095852;28;20460;-73
2022/01/02 10:21:27;;;;;;;4.95;2.58;;;12.70;86.30;;;;;;5114250;28;20023;-73
2022/01/02 10:24:10;;;;;;;4.95;2.67;;;12.80;86.00;;;;;;5095774;28;20383;-74
2022/01/02 10:26:36;;;;;;;4.07;2.67;;;12.90;85.90;;;;;;5095891;28;20205;-72
2022/01/02 10:29:10;;;;;;;4.43;2.40;;;12.90;85.80;;;;;;5096205;28;20057;-75
2022/01/02 10:31:36;;;;;;;5.18;3.22;;;13.00;85.80;;;;;;5095977;28;20395;-73
2022/01/02 10:34:01;;;;;;;5.32;3.20;;;13.00;85.70;;;;;;5096052;28;20016;-73
2022/01/02 10:36:36;;;;;;;6.95;3.25;;;13.00;85.30;;;;;;5096233;28;20378;-72
2022/01/02 10:39:07;;;;;;;5.65;2.97;;;13.00;85.10;;;;;;5095652;28;20024;-73
2022/01/02 10:41:36;;;;;;;4.22;3.20;;;13.00;85.00;;;;;;5095641;28;20084;-74
2022/01/02 10:44:18;;;;;;;4.78;3.03;;;13.00;84.90;;;;;;5095917;28;20026;-73
2022/01/02 10:47:11;;;;;;;5.00;3.42;;;13.00;85.10;;;;;;5113837;28;20027;-72
2022/01/02 10:50:01;;;;;;;9.10;3.50;;;13.10;85.00;;;;;;5095520;28;20030;-73
2022/01/02 10:52:38;;;;;;;5.72;3.28;;;13.10;84.80;;;;;;5095588;28;20379;-72
2022/01/02 10:55:16;;;;;;;6.80;3.25;;;13.10;84.80;;;;;;5095778;28;20027;-73
2022/01/02 10:57:42;;;;;;;6.97;3.80;;;13.10;84.80;;;;;;5095668;28;20023;-73
2022/01/02 11:00:10;;;;;;;7.43;3.53;;;13.10;84.40;;;;;;5094306;28;20078;-72
2022/01/02 11:02:38;;;;;;;7.55;3.30;;;13.10;84.50;;;;;;5095366;28;20035;-71
2022/01/02 11:05:11;;;;;;;6.75;3.33;;;13.10;84.40;;;;;;5095490;28;20122;-72
2022/01/02 11:07:48;;;;;;;5.57;3.22;;;13.10;84.40;;;;;;5113562;28;20467;-71
2022/01/02 11:10:16;;;;;;;6.90;3.30;;;13.10;84.40;;;;;;5095252;28;20424;-72
2022/01/02 11:12:43;;;;;;;5.20;3.10;;;13.10;84.60;;;;;;5095073;28;20474;-72
2022/01/02 11:15:11;;;;;;;5.47;3.22;;;13.10;84.50;;;;;;5113331;28;20137;-73
2022/01/02 11:17:37;;;;;;;6.82;3.00;;;13.10;84.60;;;;;;5095222;28;20032;-72
2022/01/02 11:20:12;;;;;;;6.40;3.25;;;13.00;84.60;;;;;;5095044;28;20514;-72
2022/01/02 11:23:05;;;;;;;7.80;3.15;;;13.00;84.60;;;;;;5095049;28;20027;-72
2022/01/02 11:25:52;;;;;;;6.32;3.08;;;13.10;84.60;;;;;;5113172;28;20031;-72
2022/01/02 11:28:41;;;;;;;7.63;3.10;;;13.10;84.60;;;;;;5113207;28;20028;-73
2022/01/02 11:31:09;;;;;;;6.72;3.22;;;13.00;84.50;;;;;;5094989;28;20131;-72
2022/01/02 11:33:44;;;;;;;5.93;3.00;;;13.00;84.50;;;;;;5094970;28;20024;-71
2022/01/02 11:36:30;;;;;;;8.90;4.65;;;13.00;84.40;;;;;;5113333;28;20031;-71
2022/01/02 11:39:10;;;;;;;7.60;3.53;;;13.00;84.60;;;;;;5094932;28;20024;-73
2022/01/02 11:41:44;;;;;;;7.72;3.55;;;13.00;84.60;;;;;;5094938;28;20466;-73
2022/01/02 11:44:18;;;;;;;6.45;3.30;;;13.00;84.70;;;;;;5094982;28;20029;-73
2022/01/02 11:46:57;;;;;;;9.35;3.22;;;13.10;84.60;;;;;;5094940;28;20028;-73
2022/01/02 11:49:40;;;;;;;8.75;3.53;;;13.10;84.50;;;;;;5113052;28;20027;-73
2022/01/02 11:52:07;;;;;;;7.47;2.95;;;13.10;84.40;;;;;;5094905;28;20028;-73
2022/01/02 11:54:33;;;;;;;9.07;3.05;;;13.10;84.50;;;;;;5094824;28;20118;-73
2022/01/02 11:57:02;;;;;;;6.40;2.80;;;13.10;84.50;;;;;;5095061;28;20055;-74
2022/01/02 11:59:39;;;;;;;9.32;3.10;;;13.10;84.60;;;;;;5094521;28;20066;-74
2022/01/02 12:02:09;;;;;;;6.35;2.88;;;13.10;84.60;;;;;;5094619;28;20032;-73
2022/01/02 12:05:02;;;;;;;6.43;2.78;;;13.10;84.50;;;;;;5094768;28;20036;-72
2022/01/02 12:07:33;;;;;;;7.53;2.70;;;13.10;84.50;;;;;;5094620;28;20043;-72
2022/01/02 12:10:17;;;;;;;6.28;2.80;;;13.10;84.50;;;;;;5095125;28;20499;-73
2022/01/02 12:13:17;;;;;;;7.07;2.55;;;13.20;84.50;;;;;;5098389;28;20395;-74
2022/01/02 12:15:43;;;;;;;7.90;3.15;;;13.20;84.40;;;;;;5098602;28;20039;-74
2022/01/02 12:18:26;;;;;;;9.15;2.90;;;13.20;84.40;;;;;;5098391;28;20487;-73
2022/01/02 12:20:57;;;;;;;8.60;3.05;;;13.10;84.50;;;;;;5117034;28;20031;-73
2022/01/02 12:23:52;;;;;;;8.15;2.85;;;13.20;84.60;;;;;;5116630;28;20100;-73
2022/01/02 12:26:21;;;;;;;8.43;2.95;;;13.20;84.70;;;;;;5098371;28;20563;-73
2022/01/02 12:28:56;;;;;;;8.10;2.80;;;13.20;84.80;;;;;;5098007;28;20023;-74
2022/01/02 12:31:25;;;;;;;8.13;3.08;;;13.10;84.60;;;;;;5116448;28;20051;-74
2022/01/02 12:33:51;;;;;;;7.60;3.30;;;13.20;84.60;;;;;;5098109;28;20020;-73
2022/01/02 12:36:22;;;;;;;8.40;2.63;;;13.20;84.60;;;;;;5098052;28;20051;-74
2022/01/02 12:38:56;;;;;;;7.80;3.00;;;13.20;84.50;;;;;;5098004;28;20114;-75
2022/01/02 12:41:30;;;;;;;8.35;3.00;;;13.20;84.40;;;;;;5116358;28;20381;-74
2022/01/02 12:44:20;;;;;;;9.05;3.17;;;13.30;84.30;;;;;;5116324;28;20036;-74
2022/01/02 12:46:51;;;;;;;10.60;3.08;;;13.30;84.20;;;;;;5115752;28;20043;-73
2022/01/02 12:49:23;;;;;;;7.35;2.85;;;13.30;84.30;;;;;;5097711;28;20036;-73
2022/01/02 12:51:51;;;;;;;8.50;3.03;;;13.30;84.30;;;;;;5116116;28;20027;-74
2022/01/02 12:54:30;;;;;;;7.32;3.05;;;13.30;84.40;;;;;;5097815;28;20019;-74
2022/01/02 12:57:01;;;;;;;9.75;3.50;;;13.30;84.20;;;;;;5097668;28;20402;-74
2022/01/02 12:59:32;;;;;;;5.82;2.78;;;13.30;84.20;;;;;;5097463;28;20138;-74
2022/01/02 13:02:01;;;;;;;8.95;3.67;;;13.30;84.40;;;;;;5097605;28;20031;-73
2022/01/02 13:04:41;;;;;;;11.95;3.17;;;13.30;84.20;;;;;;5097430;28;20036;-73
2022/01/02 13:07:22;;;;;;;9.43;2.92;;;13.30;84.20;;;;;;5097590;28;20437;-73
2022/01/02 13:09:50;;;;;;;12.25;3.13;;;13.30;84.20;;;;;;5097349;28;20027;-73
2022/01/02 13:12:17;;;;;;;9.13;3.22;;;13.30;84.30;;;;;;5097468;28;20072;-72
2022/01/02 13:14:51;;;;;;;7.35;3.33;;;13.30;84.10;;;;;;5115774;28;20445;-73
2022/01/02 13:17:26;;;;;;;9.25;3.42;;;13.30;84.10;;;;;;5097368;28;20016;-73
2022/01/02 13:20:19;;;;;;;7.22;2.88;;;13.30;84.80;;;;;;5115762;28;20038;-73
2022/01/02 13:22:51;;;;;;;8.25;3.10;;;13.30;84.00;;;;;;5096333;28;20028;-72
2022/01/02 13:25:45;;;;;;;12.57;3.00;;;13.30;84.00;;;;;;5097186;28;20118;-73
2022/01/02 13:28:16;;;;;;;7.03;2.80;;;13.30;84.10;;;;;;5097251;28;20024;-75
2022/01/02 13:30:58;;;;;;;9.63;3.03;;;13.30;84.00;;;;;;5094170;28;20085;-73
2022/01/02 13:33:34;;;;;;;8.90;3.08;;;13.30;84.00;;;;;;5097442;28;20059;-73
2022/01/02 13:36:11;;;;;;;9.93;3.40;;;13.30;83.90;;;;;;5115497;28;20077;-73
2022/01/02 13:38:53;;;;;;;11.30;3.10;;;13.30;84.00;;;;;;5115219;28;20023;-73
2022/01/02 13:44:50;;;;;;;12.20;2.53;;;13.30;83.30;;;;;;5115500;28;20498;-72